Time;durP1;ratioP1;P1;durP2;ratioP2;P2;SDS_P1;SDS_P2;PMS_P1;PMS_P2;Temp;Humidity;BMP_temperature;BMP_pressure;BME280_temperature;BME280_humidity;BME280_pressure;Samples;Min_cycle;Max_cycle;Signal;HPM_P1;HPM_P2
2021/12/07 00:00:49;;;;;;;5.35;2.42;;;;;;;2.25;82.29;98630.06;5051878;28;20083;-64
2021/12/07 00:03:15;;;;;;;7.30;2.95;;;;;;;2.20;82.36;98633.47;5070720;28;20209;-64
2021/12/07 00:05:40;;;;;;;4.18;1.70;;;;;;;2.10;82.36;98634.06;5071083;28;20478;-66
2021/12/07 00:08:05;;;;;;;4.88;1.85;;;;;;;2.21;82.32;98634.28;5070923;28;20056;-63
2021/12/07 00:10:31;;;;;;;5.20;1.85;;;;;;;2.15;82.97;98641.44;5070591;28;20056;-63
2021/12/07 00:12:58;;;;;;;3.28;1.67;;;;;;;2.35;82.42;98634.84;5053555;28;20036;-63
2021/12/07 00:15:24;;;;;;;4.65;2.55;;;;;;;2.34;82.03;98638.56;5073439;28;20407;-64
2021/12/07 00:17:49;;;;;;;4.30;1.88;;;;;;;2.55;81.57;98644.38;5073266;28;20124;-63
2021/12/07 00:20:20;;;;;;;7.53;2.58;;;;;;;2.13;82.71;98638.16;5072585;28;20111;-64
2021/12/07 00:22:49;;;;;;;3.30;1.45;;;;;;;2.18;82.39;98637.44;5071813;28;20021;-64
2021/12/07 00:25:15;;;;;;;4.13;1.70;;;;;;;2.46;82.50;98646.63;5068778;28;21838;-63
2021/12/07 00:27:41;;;;;;;3.35;1.58;;;;;;;2.17;82.61;98642.03;5073256;28;20047;-64
2021/12/07 00:30:08;;;;;;;4.10;1.65;;;;;;;2.26;82.66;98638.97;5073657;28;20445;-64
2021/12/07 00:32:40;;;;;;;3.65;1.77;;;;;;;2.17;82.67;98647.41;5074647;28;20025;-63
2021/12/07 00:37:48;;;;;;;4.40;1.88;;;;;;;2.12;83.35;98636.50;5070232;28;20075;-64
2021/12/07 00:40:17;;;;;;;3.92;1.88;;;;;;;2.23;82.79;98642.94;5069152;28;20037;-63
2021/12/07 00:42:44;;;;;;;3.65;1.42;;;;;;;2.14;83.07;98642.47;5071455;28;20021;-65
2021/12/07 00:45:12;;;;;;;5.22;2.08;;;;;;;1.86;83.99;98649.41;5074143;28;20443;-64
2021/12/07 00:47:37;;;;;;;4.38;1.65;;;;;;;2.04;83.78;98651.16;5073321;28;20104;-64
2021/12/07 00:50:06;;;;;;;3.30;1.88;;;;;;;2.17;83.69;98650.09;5073591;28;20044;-64
2021/12/07 00:52:32;;;;;;;4.57;2.20;;;;;;;1.89;84.08;98657.03;5073358;28;20032;-64
2021/12/07 00:54:57;;;;;;;5.28;1.98;;;;;;;1.84;84.51;98655.03;5073162;28;20098;-64
2021/12/07 00:57:25;;;;;;;4.63;2.20;;;;;;;1.95;84.02;98663.31;5073637;28;20256;-65
2021/12/07 00:59:50;;;;;;;3.65;1.92;;;;;;;1.88;84.21;98671.50;5073509;28;20582;-64
2021/12/07 01:02:16;;;;;;;3.67;2.03;;;;;;;2.04;83.15;98669.16;5068695;28;20028;-64
2021/12/07 01:04:50;;;;;;;4.68;1.73;;;;;;;1.83;84.52;98676.78;5068303;28;20047;-64
2021/12/07 01:07:25;;;;;;;4.57;2.10;;;;;;;1.71;84.58;98680.25;5069645;28;20025;-63
2021/12/07 01:26:15;;;;;;;3.15;1.45;;;;;;;3.12;79.25;98709.22;5073232;28;20132;-64
2021/12/07 01:28:44;;;;;;;3.85;1.88;;;;;;;3.47;78.22;98702.84;5072747;28;20040;-64
2021/12/07 01:34:11;;;;;;;3.75;1.83;;;;;;;2.76;79.69;98717.44;5069158;28;20513;-64
2021/12/07 01:50:06;;;;;;;5.07;2.83;;;;;;;3.01;79.65;98744.03;5075199;28;20123;-64
2021/12/07 02:00:32;;;;;;;4.87;2.53;;;;;;;2.68;80.28;98762.50;5072138;28;20032;-63
2021/12/07 02:02:58;;;;;;;4.72;2.55;;;;;;;3.02;79.09;98766.41;5075068;28;20375;-64
2021/12/07 02:05:23;;;;;;;5.53;2.67;;;;;;;3.00;77.74;98765.84;5072102;28;20033;-64
2021/12/07 02:07:49;;;;;;;5.93;3.28;;;;;;;3.68;76.89;98772.47;5076056;28;20137;-64
2021/12/07 02:10:18;;;;;;;6.18;3.28;;;;;;;3.73;76.77;98775.22;5074292;28;20028;-64
2021/12/07 02:12:47;;;;;;;6.00;2.45;;;;;;;3.99;74.93;98770.25;5073403;28;20044;-64
2021/12/07 02:15:18;;;;;;;4.57;2.97;;;;;;;3.26;75.88;98788.72;5075281;28;20032;-64
2021/12/07 02:17:44;;;;;;;7.95;4.50;;;;;;;3.57;76.52;98780.38;5074082;28;20035;-64
2021/12/07 02:20:12;;;;;;;7.85;3.72;;;;;;;3.47;76.10;98793.66;5073374;28;20024;-64
2021/12/07 02:22:37;;;;;;;7.07;3.72;;;;;;;3.15;77.14;98801.16;5072841;28;20028;-64
2021/12/07 02:25:05;;;;;;;5.55;3.45;;;;;;;3.40;75.77;98804.56;5074981;28;20031;-64
2021/12/07 02:27:30;;;;;;;8.85;4.32;;;;;;;3.12;78.29;98814.28;5073534;28;20560;-64
2021/12/07 02:29:56;;;;;;;11.25;4.75;;;;;;;3.02;76.85;98812.19;5074251;28;20034;-64
2021/12/07 02:32:21;;;;;;;8.35;4.65;;;;;;;2.64;77.42;98814.38;5073224;28;20517;-63
2021/12/07 02:34:59;;;;;;;7.75;4.25;;;;;;;2.60;78.06;98816.72;5073863;28;20103;-63
2021/12/07 02:37:26;;;;;;;7.63;3.90;;;;;;;3.24;77.13;98825.03;5074805;28;20032;-63
2021/12/07 02:39:51;;;;;;;9.85;5.57;;;;;;;2.27;79.16;98826.19;5072047;28;20027;-64
2021/12/07 02:42:17;;;;;;;8.10;4.20;;;;;;;2.62;79.23;98828.09;5073114;28;20107;-64
2021/12/07 02:44:43;;;;;;;8.68;4.47;;;;;;;3.37;77.10;98830.16;5072985;28;20032;-62
2021/12/07 02:47:08;;;;;;;8.93;4.35;;;;;;;2.33;79.10;98833.34;5054736;28;20383;-64
2021/12/07 02:49:34;;;;;;;12.10;5.93;;;;;;;2.41;79.45;98830.31;5071757;28;20067;-63
2021/12/07 02:51:59;;;;;;;12.68;4.47;;;;;;;2.65;79.98;98841.06;5072788;28;20024;-61
2021/12/07 02:54:25;;;;;;;8.15;4.32;;;;;;;2.25;80.27;98844.44;5074179;28;20687;-62
2021/12/07 02:56:53;;;;;;;13.65;7.82;;;;;;;2.27;81.04;98843.16;5074027;28;20028;-63
2021/12/07 02:59:20;;;;;;;10.60;5.50;;;;;;;2.26;81.58;98851.47;5075994;28;20097;-64
2021/12/07 03:01:53;;;;;;;14.10;7.75;;;;;;;2.03;82.88;98859.25;5072778;28;20468;-62
2021/12/07 03:04:24;;;;;;;15.43;9.23;;;;;;;1.53;82.80;98871.94;5073564;28;20020;-64
2021/12/07 03:28:22;;;;;;;18.20;9.48;;;;;;;3.16;79.84;98898.94;5073956;28;20402;-62
2021/12/07 03:30:48;;;;;;;21.20;10.68;;;;;;;2.90;81.51;98896.53;5073156;28;20079;-64
2021/12/07 03:33:13;;;;;;;21.30;9.95;;;;;;;3.29;79.23;98905.97;5073939;28;20024;-62
2021/12/07 03:35:39;;;;;;;20.02;10.70;;;;;;;3.70;77.93;98905.16;5073613;28;20024;-63
2021/12/07 03:38:06;;;;;;;18.20;10.50;;;;;;;3.54;78.29;98909.44;5072169;28;20028;-63
2021/12/07 03:40:32;;;;;;;33.17;15.88;;;;;;;2.66;82.37;98904.63;5073350;28;20028;-63
2021/12/07 03:42:58;;;;;;;18.80;12.80;;;;;;;3.74;79.02;98922.50;5073063;28;20066;-63
2021/12/07 03:45:24;;;;;;;24.13;12.52;;;;;;;3.47;79.80;98928.41;5071699;28;20025;-64
2021/12/07 03:47:50;;;;;;;31.00;17.00;;;;;;;2.80;82.08;98931.31;5073835;28;20036;-61
2021/12/07 03:50:15;;;;;;;30.55;14.07;;;;;;;3.25;82.35;98937.94;5073485;28;20043;-65
2021/12/07 03:52:40;;;;;;;27.52;15.90;;;;;;;3.12;82.21;98944.41;5072155;28;20077;-62
2021/12/07 03:55:07;;;;;;;21.27;12.55;;;;;;;3.92;79.26;98944.94;5073280;28;20028;-63
2021/12/07 03:57:32;;;;;;;26.33;15.77;;;;;;;3.24;80.62;98943.56;5071707;28;20035;-63
2021/12/07 03:59:59;;;;;;;24.02;13.80;;;;;;;3.21;81.91;98946.75;5072951;28;20021;-63
2021/12/07 04:02:25;;;;;;;21.30;13.57;;;;;;;3.36;81.15;98949.75;5053925;28;20031;-64
2021/12/07 04:04:58;;;;;;;22.13;12.15;;;;;;;3.26;82.13;98954.94;5071907;28;20032;-63
2021/12/07 04:07:23;;;;;;;28.30;18.13;;;;;;;3.47;80.41;98958.06;5072275;28;20632;-64
2021/12/07 04:09:49;;;;;;;27.50;14.35;;;;;;;3.89;79.54;98965.09;5071025;28;20032;-64
2021/12/07 04:12:14;;;;;;;27.80;14.25;;;;;;;3.70;81.26;98965.25;5072465;28;20028;-62
2021/12/07 04:14:39;;;;;;;22.80;11.90;;;;;;;3.94;79.43;98967.91;5071038;28;20035;-63
2021/12/07 04:17:05;;;;;;;26.55;12.90;;;;;;;3.88;80.77;98965.34;5072028;28;20035;-63
2021/12/07 04:19:30;;;;;;;22.80;13.13;;;;;;;3.82;79.66;98972.53;5070831;28;20025;-64
2021/12/07 04:21:55;;;;;;;22.60;13.20;;;;;;;3.03;83.66;98983.53;5071516;28;20055;-64
2021/12/07 04:24:20;;;;;;;30.30;14.45;;;;;;;2.65;86.31;98989.09;5071376;28;20024;-64
2021/12/07 04:26:46;;;;;;;27.85;14.20;;;;;;;3.44;84.13;98988.19;5071568;28;20071;-64
2021/12/07 04:29:11;;;;;;;25.45;13.35;;;;;;;3.69;82.12;98995.16;5052262;28;20124;-63
2021/12/07 04:31:37;;;;;;;22.33;12.35;;;;;;;4.22;80.45;98992.41;5070859;28;20036;-63
2021/12/07 04:34:02;;;;;;;22.02;13.68;;;;;;;3.90;80.75;98991.03;5071927;28;20581;-64
2021/12/07 04:39:13;;;;;;;23.25;12.68;;;;;;;4.01;80.68;99000.13;5061610;28;20119;-63
2021/12/07 04:41:38;;;;;;;20.60;9.63;;;;;;;4.25;80.33;99002.72;5071209;28;20037;-63
2021/12/07 04:44:04;;;;;;;20.50;11.52;;;;;;;3.74;81.46;99001.47;5071016;28;20078;-64
2021/12/07 04:46:39;;;;;;;23.45;11.95;;;;;;;4.42;80.06;99007.34;5075099;28;20056;-63
2021/12/07 04:57:49;;;;;;;31.83;14.07;;;;;;;3.95;81.71;99014.56;5075751;28;20481;-63
2021/12/07 04:59:49;;;;;;;28.98;13.32;;;;;;;4.19;81.93;99015.31;5066543;28;20048;-63
2021/12/07 05:02:17;;;;;;;28.15;15.48;;;;;;;3.74;82.50;99014.16;5078093;28;20028;-65
2021/12/07 05:04:42;;;;;;;35.53;17.13;;;;;;;3.20;86.07;99020.53;5078748;28;20079;-63
2021/12/07 05:07:14;;;;;;;35.70;14.45;;;;;;;4.13;83.87;99016.25;5077535;28;20467;-64
2021/12/07 05:12:53;;;;;;;41.00;16.20;;;;;;;4.44;80.42;99024.94;5045762;28;20079;-64
2021/12/07 05:15:30;;;;;;;31.55;13.48;;;;;;;4.93;79.95;99022.78;5077518;28;20036;-62
2021/12/07 05:34:30;;;;;;;32.03;16.10;;;;;;;4.28;81.27;99040.03;5078149;28;20505;-62
2021/12/07 05:39:42;;;;;;;29.70;15.32;;;;;;;4.59;80.02;99066.78;5077293;28;20493;-64
2021/12/07 05:42:08;;;;;;;41.05;18.48;;;;;;;4.20;81.59;99065.53;5059578;28;20029;-63
2021/12/07 05:44:33;;;;;;;27.10;14.82;;;;;;;4.42;81.92;99064.03;5076828;28;20024;-64
2021/12/07 05:46:58;;;;;;;31.35;16.08;;;;;;;4.78;79.47;99070.06;5077744;28;20035;-64
2021/12/07 05:49:24;;;;;;;30.27;14.93;;;;;;;4.54;80.15;99064.81;5076304;28;20046;-64
2021/12/07 05:51:49;;;;;;;23.52;12.60;;;;;;;4.78;79.81;99080.88;5077499;28;20024;-64
2021/12/07 05:54:15;;;;;;;31.20;15.68;;;;;;;4.71;78.71;99085.63;5076695;28;20075;-64
2021/12/07 05:56:40;;;;;;;30.88;14.07;;;;;;;4.50;80.71;99085.25;5076743;28;20024;-63
2021/12/07 05:59:05;;;;;;;63.08;18.98;;;;;;;3.84;82.83;99092.56;5077166;28;20048;-64
2021/12/07 06:01:31;;;;;;;30.13;14.82;;;;;;;4.43;80.92;99100.78;5076983;28;21110;-64
2021/12/07 06:03:56;;;;;;;25.73;12.38;;;;;;;4.64;80.83;99109.25;5077607;28;20476;-63
2021/12/07 06:06:21;;;;;;;28.75;14.23;;;;;;;4.88;79.79;99107.25;5076173;28;20050;-63
2021/12/07 06:08:47;;;;;;;35.03;16.92;;;;;;;4.63;79.89;99121.13;5077337;28;20050;-64
2021/12/07 06:11:12;;;;;;;28.27;14.82;;;;;;;4.30;81.26;99124.28;5075883;28;20036;-65
2021/12/07 06:13:51;;;;;;;24.00;15.23;;;;;;;5.04;79.27;99133.72;5076155;28;20425;-64
2021/12/07 06:16:16;;;;;;;31.35;15.23;;;;;;;4.84;80.05;99141.22;5075700;28;20032;-63
2021/12/07 06:18:42;;;;;;;32.05;15.52;;;;;;;4.60;80.52;99143.19;5076202;28;20442;-64
2021/12/07 06:21:07;;;;;;;31.10;16.58;;;;;;;4.59;80.17;99141.56;5077029;28;20035;-63
2021/12/07 06:23:33;;;;;;;27.38;12.98;;;;;;;5.18;78.86;99158.56;5075926;28;20028;-64
2021/12/07 06:25:59;;;;;;;29.73;17.13;;;;;;;4.81;79.47;99155.22;5058114;28;20055;-64
2021/12/07 06:28:25;;;;;;;37.60;14.93;;;;;;;4.94;78.37;99158.69;5074816;28;20032;-64
2021/12/07 06:30:51;;;;;;;37.55;18.00;;;;;;;4.21;81.99;99158.06;5056104;28;20040;-64
2021/12/07 06:33:18;;;;;;;33.40;15.93;;;;;;;4.20;82.73;99161.84;5076181;28;20024;-64
2021/12/07 06:35:45;;;;;;;34.53;18.35;;;;;;;4.18;82.96;99172.06;5076842;28;20036;-64
2021/12/07 06:38:10;;;;;;;34.03;17.25;;;;;;;3.85;84.46;99169.72;5075660;28;20036;-63
2021/12/07 06:40:36;;;;;;;33.25;17.77;;;;;;;4.49;82.37;99170.00;5057586;28;20086;-64
2021/12/07 06:43:02;;;;;;;29.10;15.15;;;;;;;4.70;80.83;99170.38;5076826;28;20035;-64
2021/12/07 06:45:29;;;;;;;36.70;14.63;;;;;;;4.75;80.55;99167.81;5075391;28;20027;-64
2021/12/07 06:47:55;;;;;;;29.70;15.32;;;;;;;4.79;80.67;99162.72;5076347;28;20547;-63
2021/12/07 06:50:21;;;;;;;25.85;13.77;;;;;;;5.17;79.07;99163.13;5075248;28;20055;-63
2021/12/07 06:52:47;;;;;;;33.78;16.80;;;;;;;4.31;81.66;99166.38;5075602;28;20476;-65
2021/12/07 06:55:12;;;;;;;34.10;16.35;;;;;;;4.79;79.82;99173.53;5075701;28;20037;-63
2021/12/07 06:57:37;;;;;;;29.90;13.18;;;;;;;5.28;78.29;99172.25;5075500;28;20108;-64
2021/12/07 07:00:07;;;;;;;34.88;15.60;;;;;;;4.76;79.63;99164.03;5075867;28;20390;-63
2021/12/07 07:02:32;;;;;;;38.05;16.60;;;;;;;5.13;79.06;99183.59;5074626;28;20035;-63
2021/12/07 07:04:58;;;;;;;24.80;13.63;;;;;;;5.16;78.81;99188.53;5076228;28;20463;-64
2021/12/07 07:07:24;;;;;;;28.77;15.27;;;;;;;4.70;79.40;99200.09;5057405;28;20020;-62
2021/12/07 07:09:50;;;;;;;33.03;14.95;;;;;;;5.26;79.30;99204.13;5075564;28;20033;-64
2021/12/07 07:12:16;;;;;;;31.88;16.85;;;;;;;4.69;79.93;99189.53;5075766;28;20040;-63
2021/12/07 07:14:41;;;;;;;27.27;13.13;;;;;;;4.60;80.42;99197.19;5075277;28;20798;-64
2021/12/07 07:17:06;;;;;;;33.13;13.80;;;;;;;4.72;80.50;99206.09;5075447;28;20487;-64
2021/12/07 07:19:32;;;;;;;26.90;13.13;;;;;;;4.94;79.20;99207.31;5074913;28;20028;-64
2021/12/07 07:22:01;;;;;;;26.60;12.48;;;;;;;5.02;79.01;99218.53;5076026;28;20032;-64
2021/12/07 07:24:26;;;;;;;22.42;11.70;;;;;;;5.40;78.36;99228.13;5074415;28;20466;-63
2021/12/07 07:26:52;;;;;;;31.65;13.48;;;;;;;4.42;81.39;99217.88;5075740;28;20123;-64
2021/12/07 07:29:17;;;;;;;26.98;12.57;;;;;;;4.81;79.40;99203.84;5074886;28;20391;-64
2021/12/07 07:31:42;;;;;;;29.58;12.20;;;;;;;4.71;79.30;99226.06;5074975;28;20060;-64
2021/12/07 07:34:08;;;;;;;24.35;12.82;;;;;;;4.59;79.97;99217.16;5075321;28;20505;-64
2021/12/07 07:36:33;;;;;;;20.80;11.20;;;;;;;4.49;80.24;99217.78;5075157;28;20020;-64
2021/12/07 07:38:59;;;;;;;39.67;14.38;;;;;;;4.90;78.60;99220.50;5075644;28;20033;-64
2021/12/07 07:41:24;;;;;;;22.63;11.40;;;;;;;5.00;78.30;99209.84;5074328;28;20851;-62
2021/12/07 07:43:49;;;;;;;37.08;11.55;;;;;;;5.17;77.85;99227.16;5074206;28;20199;-64
2021/12/07 07:46:15;;;;;;;20.80;11.70;;;;;;;5.44;76.62;99232.00;5073074;28;20044;-64
2021/12/07 07:48:40;;;;;;;25.20;11.90;;;;;;;5.11;77.52;99231.66;5074601;28;20455;-64
2021/12/07 07:51:06;;;;;;;33.50;13.50;;;;;;;4.59;79.66;99238.75;5074922;28;20040;-65
2021/12/07 07:53:31;;;;;;;30.35;13.82;;;;;;;4.64;79.32;99225.34;5074095;28;20036;-63
2021/12/07 07:55:57;;;;;;;23.00;11.25;;;;;;;4.85;78.54;99234.72;5074351;28;20621;-64
2021/12/07 07:58:22;;;;;;;26.38;12.18;;;;;;;4.65;80.03;99219.75;5073962;28;20028;-65
2021/12/07 08:00:48;;;;;;;26.52;12.25;;;;;;;4.94;77.86;99229.75;5075629;28;20429;-64
2021/12/07 08:03:14;;;;;;;26.98;10.63;;;;;;;5.72;75.29;99236.53;5074797;28;20074;-64
2021/12/07 08:05:39;;;;;;;29.92;10.77;;;;;;;4.85;78.56;99244.69;5074772;28;20035;-64
2021/12/07 08:08:05;;;;;;;19.33;9.18;;;;;;;5.70;75.71;99245.94;5074375;28;20087;-64
2021/12/07 08:13:52;;;;;;;28.75;11.73;;;;;;;4.61;79.07;99255.56;5073678;28;20504;-63
2021/12/07 08:16:17;;;;;;;31.63;11.57;;;;;;;4.98;78.67;99251.72;5074506;28;20028;-63
2021/12/07 08:18:48;;;;;;;27.85;10.80;;;;;;;5.37;77.05;99259.16;5074538;28;20024;-64
2021/12/07 08:21:15;;;;;;;24.80;9.77;;;;;;;4.94;78.13;99254.06;5074551;28;20127;-64
2021/12/07 08:23:41;;;;;;;20.67;11.05;;;;;;;4.82;79.26;99250.59;5074199;28;20024;-63
2021/12/07 08:26:09;;;;;;;23.23;12.25;;;;;;;5.56;76.58;99257.09;5074548;28;20076;-64
2021/12/07 08:28:34;;;;;;;20.80;9.52;;;;;;;5.34;76.45;99248.84;5073463;28;20024;-64
2021/12/07 08:31:01;;;;;;;30.50;9.20;;;;;;;5.54;76.13;99248.41;5078272;28;20031;-64
2021/12/07 08:33:27;;;;;;;25.45;11.32;;;;;;;4.87;77.51;99231.75;5080967;28;20016;-64
2021/12/07 08:35:53;;;;;;;21.60;9.18;;;;;;;4.87;78.80;99242.56;5081780;28;20016;-64
2021/12/07 08:38:18;;;;;;;47.25;13.02;;;;;;;4.69;79.27;99233.56;5081482;28;20046;-64
2021/12/07 08:40:44;;;;;;;20.80;10.35;;;;;;;5.33;77.13;99231.00;5081162;28;20115;-63
2021/12/07 08:43:12;;;;;;;20.45;10.40;;;;;;;5.78;75.89;99232.00;5080370;28;20036;-64
2021/12/07 08:45:40;;;;;;;20.13;9.30;;;;;;;5.25;76.12;99235.72;5079623;28;20028;-64
2021/12/07 08:48:05;;;;;;;26.00;11.07;;;;;;;4.85;78.52;99237.41;5081098;28;20044;-63
2021/12/07 08:50:32;;;;;;;32.45;10.25;;;;;;;5.24;77.39;99239.50;5079810;28;20025;-64
2021/12/07 08:53:03;;;;;;;26.58;9.55;;;;;;;5.81;75.71;99233.41;5081404;28;20024;-64
2021/12/07 09:00:59;;;;;;;23.75;9.07;;;;;;;5.02;77.88;99221.25;5081426;28;20039;-62
2021/12/07 09:03:24;;;;;;;30.73;9.57;;;;;;;4.76;78.08;99228.84;5078518;28;20016;-64
2021/12/07 09:05:49;;;;;;;16.17;8.07;;;;;;;5.25;77.43;99243.00;5079878;28;20028;-63
2021/12/07 09:08:15;;;;;;;19.58;9.85;;;;;;;5.30;76.74;99232.31;5080560;28;20475;-64
2021/12/07 09:10:41;;;;;;;21.75;10.00;;;;;;;5.28;76.40;99229.03;5079059;28;20026;-63
2021/12/07 09:13:06;;;;;;;24.00;9.15;;;;;;;5.42;77.41;99234.13;5077560;28;20039;-63
2021/12/07 09:15:32;;;;;;;23.63;10.52;;;;;;;4.95;78.81;99246.75;5077986;28;20506;-62
2021/12/07 09:17:57;;;;;;;21.08;9.43;;;;;;;4.77;79.08;99246.72;5078761;28;20027;-62
2021/12/07 09:20:22;;;;;;;18.48;9.65;;;;;;;5.22;77.34;99252.44;5077639;28;20023;-64
2021/12/07 09:22:48;;;;;;;22.58;10.05;;;;;;;4.97;78.06;99256.28;5080446;28;20415;-64
2021/12/07 09:25:15;;;;;;;29.77;11.15;;;;;;;5.91;75.97;99257.09;5077978;28;20034;-64
2021/12/07 09:27:41;;;;;;;20.88;9.50;;;;;;;5.06;77.08;99258.59;5079157;28;20020;-64
2021/12/07 09:30:10;;;;;;;21.13;9.18;;;;;;;5.00;78.11;99272.00;5079943;28;20040;-63
2021/12/07 09:32:35;;;;;;;19.55;9.95;;;;;;;5.24;77.67;99271.13;5080349;28;20023;-64
2021/12/07 09:35:02;;;;;;;20.85;9.93;;;;;;;5.22;77.53;99279.47;5080091;28;20043;-64
2021/12/07 09:37:28;;;;;;;25.05;9.90;;;;;;;4.73;79.00;99277.97;5079895;28;20028;-64
2021/12/07 09:39:53;;;;;;;23.02;10.18;;;;;;;5.49;77.90;99295.09;5080722;28;20221;-64
2021/12/07 09:42:19;;;;;;;19.63;10.13;;;;;;;4.86;77.73;99290.38;5076833;28;20057;-62
2021/12/07 09:44:44;;;;;;;25.42;9.93;;;;;;;5.13;77.03;99294.41;5077746;28;20119;-63
2021/12/07 09:47:10;;;;;;;22.35;9.48;;;;;;;4.29;79.74;99289.97;5075581;28;20034;-62
2021/12/07 09:49:35;;;;;;;22.10;11.25;;;;;;;3.99;81.09;99284.69;5075258;28;20028;-62
2021/12/07 09:52:00;;;;;;;24.17;11.80;;;;;;;4.46;80.42;99283.03;5075989;28;20024;-65
2021/12/07 09:54:26;;;;;;;21.05;9.70;;;;;;;4.39;80.08;99289.38;5074852;28;20032;-64
2021/12/07 09:59:54;;;;;;;14.57;7.80;;;;;;;3.94;81.18;99293.47;5076006;28;20059;-64
2021/12/07 10:02:20;;;;;;;20.00;10.80;;;;;;;4.17;80.70;99291.84;5076566;28;20012;-64
2021/12/07 10:04:46;;;;;;;13.82;7.70;;;;;;;4.86;78.27;99282.25;5076832;28;20035;-65
2021/12/07 10:07:11;;;;;;;22.20;9.50;;;;;;;4.46;78.02;99288.44;5075979;28;20024;-65
2021/12/07 10:09:37;;;;;;;22.23;10.25;;;;;;;5.20;76.18;99287.00;5076855;28;20028;-64
2021/12/07 10:12:04;;;;;;;20.83;8.45;;;;;;;4.72;78.49;99289.81;5075531;28;20104;-65
2021/12/07 10:14:42;;;;;;;21.17;8.25;;;;;;;4.95;77.68;99292.69;5076487;28;20615;-66
2021/12/07 10:17:08;;;;;;;25.52;9.27;;;;;;;4.83;78.69;99284.63;5071121;28;20033;-64
2021/12/07 10:19:38;;;;;;;17.58;8.07;;;;;;;4.94;77.85;99273.00;5072143;28;20475;-64
2021/12/07 10:22:07;;;;;;;24.80;9.05;;;;;;;4.68;78.39;99285.94;5072450;28;20028;-63
2021/12/07 10:24:53;;;;;;;20.30;9.32;;;;;;;4.15;80.54;99272.38;5071114;28;20106;-64
2021/12/07 10:27:32;;;;;;;24.05;9.25;;;;;;;4.06;80.11;99283.50;5072015;28;20399;-65
2021/12/07 10:29:59;;;;;;;36.45;10.65;;;;;;;4.41;79.52;99289.16;5070398;28;20446;-65
2021/12/07 10:32:25;;;;;;;16.50;8.90;;;;;;;4.77;78.51;99273.72;5071844;28;20094;-65
2021/12/07 10:34:51;;;;;;;26.02;9.75;;;;;;;4.24;80.05;99268.25;5073022;28;20016;-65
2021/12/07 10:37:18;;;;;;;26.52;9.77;;;;;;;4.87;77.70;99273.13;5073248;28;20047;-65
2021/12/07 10:39:46;;;;;;;24.60;9.90;;;;;;;5.20;77.14;99265.38;5074516;28;20032;-65
2021/12/07 10:42:24;;;;;;;24.40;10.07;;;;;;;4.32;79.10;99257.09;5074122;28;20386;-66
2021/12/07 10:44:50;;;;;;;21.13;9.18;;;;;;;4.45;78.99;99260.63;5075281;28;20072;-65
2021/12/07 10:47:18;;;;;;;20.42;8.98;;;;;;;4.38;78.96;99262.59;5073183;28;20115;-64
2021/12/07 10:49:51;;;;;;;26.27;9.85;;;;;;;5.14;76.28;99260.94;5074345;28;20441;-64
2021/12/07 10:52:33;;;;;;;26.40;10.35;;;;;;;4.96;77.34;99260.06;5073668;28;20020;-65
2021/12/07 10:55:15;;;;;;;20.38;8.57;;;;;;;4.19;79.63;99251.97;5071206;28;20024;-65
2021/12/07 10:57:57;;;;;;;22.65;9.10;;;;;;;4.49;79.11;99244.78;5073623;28;20040;-66
2021/12/07 11:00:36;;;;;;;30.23;10.70;;;;;;;4.35;79.88;99241.50;5061902;28;20032;-64
2021/12/07 11:03:05;;;;;;;25.30;9.20;;;;;;;4.19;79.58;99231.19;5073059;28;20032;-65
2021/12/07 11:05:33;;;;;;;24.85;10.27;;;;;;;4.85;77.88;99241.97;5074455;28;20111;-65
2021/12/07 11:08:01;;;;;;;23.70;10.60;;;;;;;4.81;78.57;99230.00;5071545;28;20058;-65
2021/12/07 11:10:30;;;;;;;23.38;8.68;;;;;;;4.37;78.96;99228.59;5073113;28;20048;-65
2021/12/07 11:13:15;;;;;;;22.20;11.20;;;;;;;4.22;79.82;99220.97;5072194;28;20036;-65
2021/12/07 11:15:50;;;;;;;;;;;;;;;4.55;78.93;99211.44;5075044;28;20055;-64
2021/12/07 11:18:20;;;;;;;18.25;8.68;;;;;;;4.64;78.85;99217.25;5074909;28;19969;-65
2021/12/07 11:20:46;;;;;;;17.20;8.48;;;;;;;4.69;78.63;99217.38;5072146;28;20028;-64
2021/12/07 11:23:18;;;;;;;18.48;7.38;;;;;;;4.64;78.61;99218.09;5074493;28;20024;-64
2021/12/07 11:31:37;;;;;;;16.92;8.75;;;;;;;4.33;79.29;99203.97;5073471;28;20407;-66
2021/12/07 11:34:14;;;;;;;19.67;9.45;;;;;;;4.53;78.89;99208.16;5072086;28;20115;-64
2021/12/07 11:36:53;;;;;;;18.88;8.48;;;;;;;4.49;79.00;99199.72;5073140;28;20108;-65
2021/12/07 11:39:31;;;;;;;14.55;7.53;;;;;;;4.88;78.43;99198.28;5075294;28;20085;-65
2021/12/07 11:42:05;;;;;;;20.05;11.02;;;;;;;4.87;78.02;99192.06;5074717;28;20021;-65
2021/12/07 11:44:33;;;;;;;14.95;9.05;;;;;;;4.62;78.40;99185.09;5073665;28;20525;-64
2021/12/07 11:47:00;;;;;;;16.15;8.13;;;;;;;4.78;77.59;99182.69;5074343;28;20027;-65
2021/12/07 11:49:30;;;;;;;18.02;8.52;;;;;;;4.81;78.65;99181.41;5074363;28;20031;-64
2021/12/07 11:51:58;;;;;;;19.75;7.85;;;;;;;5.08;77.67;99180.81;5071301;28;20035;-65
2021/12/07 11:54:30;;;;;;;22.00;8.60;;;;;;;5.02;77.08;99183.41;5071147;28;20025;-64
2021/12/07 11:56:56;;;;;;;20.85;7.55;;;;;;;4.60;78.15;99172.88;5068762;28;20035;-65
2021/12/07 11:59:22;;;;;;;23.73;9.57;;;;;;;4.67;77.80;99170.88;5071505;28;20028;-65
2021/12/07 12:01:49;;;;;;;17.98;9.27;;;;;;;4.92;77.14;99167.03;5071523;28;20368;-65
2021/12/07 12:04:16;;;;;;;19.05;9.05;;;;;;;5.20;75.92;99168.06;5071030;28;20034;-65
2021/12/07 12:06:45;;;;;;;21.80;9.55;;;;;;;5.13;76.27;99167.38;5071737;28;20050;-64
2021/12/07 12:09:11;;;;;;;22.00;9.18;;;;;;;5.11;76.73;99172.22;5070820;28;20123;-64
2021/12/07 12:12:05;;;;;;;26.17;9.93;;;;;;;5.08;76.79;99164.59;5071435;28;20222;-64
2021/12/07 12:15:01;;;;;;;20.52;8.35;;;;;;;5.41;76.47;99170.31;5057675;28;20028;-65
2021/12/07 12:17:47;;;;;;;17.00;9.23;;;;;;;5.20;76.42;99168.06;5073393;28;20081;-64
2021/12/07 12:20:56;;;;;;;22.95;9.23;;;;;;;4.88;77.70;99166.69;5073476;28;20175;-64
2021/12/07 12:23:32;;;;;;;22.83;8.88;;;;;;;5.39;75.75;99170.53;5075239;28;20039;-64
2021/12/07 12:26:00;;;;;;;22.13;9.50;;;;;;;5.52;75.62;99165.88;5073826;28;20064;-65
2021/12/07 12:28:34;;;;;;;19.48;10.05;;;;;;;5.89;74.60;99161.84;5073683;28;20055;-64
2021/12/07 12:30:59;;;;;;;19.13;11.60;;;;;;;5.79;74.59;99157.09;5074166;28;20036;-65
2021/12/07 12:33:25;;;;;;;22.65;10.63;;;;;;;5.16;76.22;99153.41;5074667;28;20087;-64
2021/12/07 12:35:54;;;;;;;24.67;10.80;;;;;;;5.17;75.87;99155.03;5074150;28;20082;-64
2021/12/07 12:38:22;;;;;;;27.88;10.20;;;;;;;5.14;75.76;99155.53;5074818;28;20032;-65
2021/12/07 12:41:06;;;;;;;23.25;8.98;;;;;;;5.36;75.89;99155.63;5074445;28;20325;-65
2021/12/07 12:43:55;;;;;;;18.80;8.53;;;;;;;5.64;74.31;99149.56;5073410;28;20050;-65
2021/12/07 12:46:33;;;;;;;17.25;9.15;;;;;;;5.76;74.10;99149.47;5074287;28;20036;-64
2021/12/07 12:49:10;;;;;;;19.05;8.77;;;;;;;6.46;72.55;99148.25;5073653;28;20033;-64
2021/12/07 12:51:48;;;;;;;17.85;7.18;;;;;;;6.24;72.46;99147.19;5072559;28;20024;-66
2021/12/07 12:54:13;;;;;;;26.10;7.80;;;;;;;5.85;73.03;99145.28;5073901;28;20531;-65
2021/12/07 12:56:39;;;;;;;17.98;7.03;;;;;;;5.94;72.66;99138.38;5073148;28;20032;-64
2021/12/07 12:59:09;;;;;;;25.42;6.80;;;;;;;6.59;72.17;99133.53;5073766;28;20085;-64
2021/12/07 13:01:35;;;;;;;11.93;4.97;;;;;;;6.25;72.49;99121.75;5073392;28;20196;-64
2021/12/07 13:04:21;;;;;;;25.58;5.60;;;;;;;5.83;72.48;99121.19;5073876;28;20039;-64
2021/12/07 13:06:53;;;;;;;10.45;4.80;;;;;;;5.71;72.26;99113.19;5074245;28;20020;-64
2021/12/07 13:09:18;;;;;;;13.77;4.57;;;;;;;5.60;72.91;99111.38;5072928;28;20071;-64
2021/12/07 13:11:50;;;;;;;14.97;5.03;;;;;;;6.27;70.85;99116.06;5073780;28;20060;-65
2021/12/07 13:14:21;;;;;;;13.27;6.13;;;;;;;6.37;69.77;99105.38;5073289;28;20572;-64
2021/12/07 13:16:54;;;;;;;15.63;4.95;;;;;;;6.67;69.45;99110.56;5073214;28;20411;-65
2021/12/07 13:19:20;;;;;;;31.40;5.57;;;;;;;6.33;70.03;99100.69;5077338;28;20478;-66
2021/12/07 13:21:48;;;;;;;21.00;6.65;;;;;;;6.47;70.22;99106.56;5077332;28;20028;-64
2021/12/07 13:24:15;;;;;;;17.00;7.03;;;;;;;6.46;69.65;99096.81;5077991;28;20376;-63
2021/12/07 13:26:50;;;;;;;18.00;5.55;;;;;;;6.27;70.54;99097.13;5076692;28;20049;-66
2021/12/07 13:29:21;;;;;;;20.73;5.70;;;;;;;6.63;69.82;99094.81;5077486;28;20075;-64
2021/12/07 13:31:51;;;;;;;11.88;4.90;;;;;;;6.47;70.24;99093.03;5077615;28;20028;-64